sensor_id;sensor_type;location;lat;lon;timestamp;P1;durP1;ratioP1;P2;durP2;ratioP2
72060;SDS011;59925;52.136;5.420;2023-10-19T00:01:26;11.65;;;7.25;;
72060;SDS011;59925;52.136;5.420;2023-10-19T00:03:54;10.23;;;7.00;;
72060;SDS011;59925;52.136;5.420;2023-10-19T00:06:25;12.52;;;7.68;;
72060;SDS011;59925;52.136;5.420;2023-10-19T00:08:52;12.38;;;7.63;;
72060;SDS011;59925;52.136;5.420;2023-10-19T00:11:19;12.20;;;8.20;;
72060;SDS011;59925;52.136;5.420;2023-10-19T00:13:50;10.65;;;6.85;;
72060;SDS011;59925;52.136;5.420;2023-10-19T00:16:16;11.25;;;7.28;;
72060;SDS011;59925;52.136;5.420;2023-10-19T00:18:44;11.55;;;7.43;;
72060;SDS011;59925;52.136;5.420;2023-10-19T00:21:11;12.15;;;7.80;;
72060;SDS011;59925;52.136;5.420;2023-10-19T00:23:47;11.90;;;7.90;;
72060;SDS011;59925;52.136;5.420;2023-10-19T00:26:15;12.55;;;8.25;;
72060;SDS011;59925;52.136;5.420;2023-10-19T00:28:43;13.32;;;8.18;;
72060;SDS011;59925;52.136;5.420;2023-10-19T00:31:12;12.13;;;7.90;;
72060;SDS011;59925;52.136;5.420;2023-10-19T00:33:39;13.60;;;9.15;;
72060;SDS011;59925;52.136;5.420;2023-10-19T00:36:07;14.13;;;9.03;;
72060;SDS011;59925;52.136;5.420;2023-10-19T00:38:37;15.20;;;9.45;;
72060;SDS011;59925;52.136;5.420;2023-10-19T00:41:05;14.18;;;8.88;;
72060;SDS011;59925;52.136;5.420;2023-10-19T00:43:39;13.23;;;9.05;;
72060;SDS011;59925;52.136;5.420;2023-10-19T00:46:17;13.85;;;8.75;;
72060;SDS011;59925;52.136;5.420;2023-10-19T00:48:51;14.13;;;9.37;;
72060;SDS011;59925;52.136;5.420;2023-10-19T00:51:28;14.52;;;8.85;;
72060;SDS011;59925;52.136;5.420;2023-10-19T00:54:01;13.27;;;9.02;;
72060;SDS011;59925;52.136;5.420;2023-10-19T00:56:37;13.13;;;8.52;;
72060;SDS011;59925;52.136;5.420;2023-10-19T00:59:07;15.73;;;9.82;;
72060;SDS011;59925;52.136;5.420;2023-10-19T01:01:41;13.17;;;8.93;;
72060;SDS011;59925;52.136;5.420;2023-10-19T01:04:11;16.17;;;9.73;;
72060;SDS011;59925;52.136;5.420;2023-10-19T01:06:41;16.23;;;9.82;;
72060;SDS011;59925;52.136;5.420;2023-10-19T01:09:24;15.52;;;10.27;;
72060;SDS011;59925;52.136;5.420;2023-10-19T01:11:53;15.55;;;9.85;;
72060;SDS011;59925;52.136;5.420;2023-10-19T01:14:20;15.33;;;10.10;;
72060;SDS011;59925;52.136;5.420;2023-10-19T01:16:48;13.82;;;9.40;;
72060;SDS011;59925;52.136;5.420;2023-10-19T01:19:23;17.33;;;11.52;;
72060;SDS011;59925;52.136;5.420;2023-10-19T01:21:50;16.60;;;9.50;;
72060;SDS011;59925;52.136;5.420;2023-10-19T01:24:19;16.63;;;10.25;;
72060;SDS011;59925;52.136;5.420;2023-10-19T01:26:52;16.10;;;10.37;;
72060;SDS011;59925;52.136;5.420;2023-10-19T01:29:20;16.85;;;10.43;;
72060;SDS011;59925;52.136;5.420;2023-10-19T01:31:53;17.42;;;10.60;;
72060;SDS011;59925;52.136;5.420;2023-10-19T01:34:38;15.82;;;10.68;;
72060;SDS011;59925;52.136;5.420;2023-10-19T01:37:05;17.30;;;11.00;;
72060;SDS011;59925;52.136;5.420;2023-10-19T01:39:32;17.13;;;10.80;;
72060;SDS011;59925;52.136;5.420;2023-10-19T01:42:03;18.33;;;10.93;;
72060;SDS011;59925;52.136;5.420;2023-10-19T01:44:34;20.25;;;11.30;;
72060;SDS011;59925;52.136;5.420;2023-10-19T01:47:02;20.17;;;11.18;;
72060;SDS011;59925;52.136;5.420;2023-10-19T01:49:32;19.75;;;10.90;;
72060;SDS011;59925;52.136;5.420;2023-10-19T01:51:58;15.80;;;11.73;;
72060;SDS011;59925;52.136;5.420;2023-10-19T01:54:26;19.88;;;11.82;;
72060;SDS011;59925;52.136;5.420;2023-10-19T01:56:54;15.75;;;10.75;;
72060;SDS011;59925;52.136;5.420;2023-10-19T01:59:23;19.80;;;11.48;;
72060;SDS011;59925;52.136;5.420;2023-10-19T02:01:54;19.33;;;11.35;;
72060;SDS011;59925;52.136;5.420;2023-10-19T02:04:21;17.07;;;10.53;;
72060;SDS011;59925;52.136;5.420;2023-10-19T02:06:48;16.58;;;10.35;;
72060;SDS011;59925;52.136;5.420;2023-10-19T02:09:16;16.42;;;11.35;;
72060;SDS011;59925;52.136;5.420;2023-10-19T02:11:58;16.35;;;10.32;;
72060;SDS011;59925;52.136;5.420;2023-10-19T02:14:25;18.33;;;11.40;;
72060;SDS011;59925;52.136;5.420;2023-10-19T02:16:56;16.43;;;9.77;;
72060;SDS011;59925;52.136;5.420;2023-10-19T02:19:26;17.80;;;11.05;;
72060;SDS011;59925;52.136;5.420;2023-10-19T02:21:55;17.58;;;10.98;;
72060;SDS011;59925;52.136;5.420;2023-10-19T02:24:26;18.05;;;10.48;;
72060;SDS011;59925;52.136;5.420;2023-10-19T02:26:57;15.75;;;10.25;;
72060;SDS011;59925;52.136;5.420;2023-10-19T02:29:27;19.97;;;9.93;;
72060;SDS011;59925;52.136;5.420;2023-10-19T02:31:54;18.17;;;10.80;;
72060;SDS011;59925;52.136;5.420;2023-10-19T02:34:23;18.17;;;10.65;;
72060;SDS011;59925;52.136;5.420;2023-10-19T02:36:50;17.23;;;9.25;;
72060;SDS011;59925;52.136;5.420;2023-10-19T02:39:17;15.50;;;9.88;;
72060;SDS011;59925;52.136;5.420;2023-10-19T02:41:44;15.40;;;10.17;;
72060;SDS011;59925;52.136;5.420;2023-10-19T02:44:15;17.10;;;9.38;;
72060;SDS011;59925;52.136;5.420;2023-10-19T02:46:43;14.55;;;9.63;;
72060;SDS011;59925;52.136;5.420;2023-10-19T02:49:11;13.65;;;9.70;;
72060;SDS011;59925;52.136;5.420;2023-10-19T02:51:41;16.88;;;9.88;;
72060;SDS011;59925;52.136;5.420;2023-10-19T02:54:12;15.53;;;9.07;;
72060;SDS011;59925;52.136;5.420;2023-10-19T02:56:46;14.27;;;8.98;;
72060;SDS011;59925;52.136;5.420;2023-10-19T02:59:16;19.35;;;9.90;;
72060;SDS011;59925;52.136;5.420;2023-10-19T03:01:49;15.70;;;8.73;;
72060;SDS011;59925;52.136;5.420;2023-10-19T03:04:17;15.57;;;8.70;;
72060;SDS011;59925;52.136;5.420;2023-10-19T03:06:44;16.30;;;8.87;;
72060;SDS011;59925;52.136;5.420;2023-10-19T03:09:11;15.18;;;8.27;;
72060;SDS011;59925;52.136;5.420;2023-10-19T03:12:07;13.65;;;8.00;;
72060;SDS011;59925;52.136;5.420;2023-10-19T03:14:36;16.73;;;8.68;;
72060;SDS011;59925;52.136;5.420;2023-10-19T03:17:07;14.77;;;8.70;;
72060;SDS011;59925;52.136;5.420;2023-10-19T03:19:35;14.67;;;8.50;;
72060;SDS011;59925;52.136;5.420;2023-10-19T03:22:02;14.85;;;8.80;;
72060;SDS011;59925;52.136;5.420;2023-10-19T03:24:32;16.70;;;8.70;;
72060;SDS011;59925;52.136;5.420;2023-10-19T03:29:51;13.07;;;8.05;;
72060;SDS011;59925;52.136;5.420;2023-10-19T03:32:22;13.17;;;8.00;;
72060;SDS011;59925;52.136;5.420;2023-10-19T03:34:53;13.68;;;7.25;;
72060;SDS011;59925;52.136;5.420;2023-10-19T03:37:24;14.38;;;7.80;;
72060;SDS011;59925;52.136;5.420;2023-10-19T03:39:52;14.85;;;7.30;;
72060;SDS011;59925;52.136;5.420;2023-10-19T03:42:23;14.07;;;8.20;;
72060;SDS011;59925;52.136;5.420;2023-10-19T03:44:54;14.63;;;7.70;;
72060;SDS011;59925;52.136;5.420;2023-10-19T03:47:21;13.52;;;7.22;;
72060;SDS011;59925;52.136;5.420;2023-10-19T03:49:52;14.15;;;8.25;;
72060;SDS011;59925;52.136;5.420;2023-10-19T03:52:19;10.40;;;6.38;;
72060;SDS011;59925;52.136;5.420;2023-10-19T03:54:47;14.40;;;7.15;;
72060;SDS011;59925;52.136;5.420;2023-10-19T03:57:15;15.23;;;7.17;;
72060;SDS011;59925;52.136;5.420;2023-10-19T03:59:46;12.88;;;7.35;;
72060;SDS011;59925;52.136;5.420;2023-10-19T04:02:16;9.32;;;6.53;;
72060;SDS011;59925;52.136;5.420;2023-10-19T04:04:47;12.55;;;6.32;;
72060;SDS011;59925;52.136;5.420;2023-10-19T04:07:15;8.93;;;6.45;;
72060;SDS011;59925;52.136;5.420;2023-10-19T04:09:49;9.97;;;6.07;;
72060;SDS011;59925;52.136;5.420;2023-10-19T04:12:35;12.73;;;6.35;;
72060;SDS011;59925;52.136;5.420;2023-10-19T04:15:04;13.02;;;5.78;;
72060;SDS011;59925;52.136;5.420;2023-10-19T04:17:43;11.00;;;5.65;;
72060;SDS011;59925;52.136;5.420;2023-10-19T04:20:15;11.20;;;5.65;;
72060;SDS011;59925;52.136;5.420;2023-10-19T04:22:47;8.00;;;4.93;;
72060;SDS011;59925;52.136;5.420;2023-10-19T04:25:15;10.80;;;5.55;;
72060;SDS011;59925;52.136;5.420;2023-10-19T04:27:42;9.43;;;4.93;;
72060;SDS011;59925;52.136;5.420;2023-10-19T04:30:10;9.18;;;4.45;;
72060;SDS011;59925;52.136;5.420;2023-10-19T04:32:44;7.38;;;3.90;;
72060;SDS011;59925;52.136;5.420;2023-10-19T04:35:12;8.77;;;3.93;;
72060;SDS011;59925;52.136;5.420;2023-10-19T04:37:41;7.68;;;3.45;;
72060;SDS011;59925;52.136;5.420;2023-10-19T04:40:09;8.13;;;4.13;;
72060;SDS011;59925;52.136;5.420;2023-10-19T04:42:37;7.30;;;4.35;;
72060;SDS011;59925;52.136;5.420;2023-10-19T04:45:04;5.88;;;3.80;;
72060;SDS011;59925;52.136;5.420;2023-10-19T04:47:32;9.40;;;3.00;;
72060;SDS011;59925;52.136;5.420;2023-10-19T04:50:02;6.28;;;2.95;;
72060;SDS011;59925;52.136;5.420;2023-10-19T04:52:29;6.20;;;2.97;;
72060;SDS011;59925;52.136;5.420;2023-10-19T04:54:57;9.02;;;3.05;;
72060;SDS011;59925;52.136;5.420;2023-10-19T04:57:24;8.13;;;2.58;;
72060;SDS011;59925;52.136;5.420;2023-10-19T04:59:50;5.60;;;2.47;;
72060;SDS011;59925;52.136;5.420;2023-10-19T05:02:17;5.35;;;2.30;;
72060;SDS011;59925;52.136;5.420;2023-10-19T05:04:43;5.72;;;1.92;;
72060;SDS011;59925;52.136;5.420;2023-10-19T05:07:11;4.22;;;1.85;;
72060;SDS011;59925;52.136;5.420;2023-10-19T05:09:44;4.72;;;2.20;;
72060;SDS011;59925;52.136;5.420;2023-10-19T05:12:11;5.07;;;1.73;;
72060;SDS011;59925;52.136;5.420;2023-10-19T05:14:41;5.15;;;1.85;;
72060;SDS011;59925;52.136;5.420;2023-10-19T05:17:09;4.65;;;1.67;;
72060;SDS011;59925;52.136;5.420;2023-10-19T05:19:37;9.30;;;2.50;;
72060;SDS011;59925;52.136;5.420;2023-10-19T05:22:05;4.85;;;1.60;;
72060;SDS011;59925;52.136;5.420;2023-10-19T05:24:33;3.60;;;1.00;;
72060;SDS011;59925;52.136;5.420;2023-10-19T05:27:00;3.40;;;1.00;;
72060;SDS011;59925;52.136;5.420;2023-10-19T05:29:27;5.78;;;1.80;;
72060;SDS011;59925;52.136;5.420;2023-10-19T05:31:54;9.07;;;1.13;;
72060;SDS011;59925;52.136;5.420;2023-10-19T05:34:21;3.65;;;0.80;;
72060;SDS011;59925;52.136;5.420;2023-10-19T05:36:48;4.73;;;0.93;;
72060;SDS011;59925;52.136;5.420;2023-10-19T05:39:18;5.00;;;0.90;;
72060;SDS011;59925;52.136;5.420;2023-10-19T05:41:45;7.07;;;1.02;;
72060;SDS011;59925;52.136;5.420;2023-10-19T05:44:12;6.68;;;1.00;;
72060;SDS011;59925;52.136;5.420;2023-10-19T05:46:38;4.28;;;0.98;;
72060;SDS011;59925;52.136;5.420;2023-10-19T05:49:07;3.97;;;1.07;;
72060;SDS011;59925;52.136;5.420;2023-10-19T05:51:34;2.00;;;0.77;;
72060;SDS011;59925;52.136;5.420;2023-10-19T05:54:00;3.10;;;1.30;;
72060;SDS011;59925;52.136;5.420;2023-10-19T05:56:30;4.63;;;0.82;;
72060;SDS011;59925;52.136;5.420;2023-10-19T05:58:58;6.28;;;1.00;;
72060;SDS011;59925;52.136;5.420;2023-10-19T06:01:24;3.57;;;0.83;;
72060;SDS011;59925;52.136;5.420;2023-10-19T06:03:51;5.50;;;1.20;;
72060;SDS011;59925;52.136;5.420;2023-10-19T06:06:21;6.45;;;0.80;;
72060;SDS011;59925;52.136;5.420;2023-10-19T06:08:48;2.53;;;0.90;;
72060;SDS011;59925;52.136;5.420;2023-10-19T06:11:20;4.72;;;0.85;;
72060;SDS011;59925;52.136;5.420;2023-10-19T06:13:47;4.13;;;1.10;;
72060;SDS011;59925;52.136;5.420;2023-10-19T06:16:14;4.68;;;1.00;;
72060;SDS011;59925;52.136;5.420;2023-10-19T06:18:41;4.53;;;1.15;;
72060;SDS011;59925;52.136;5.420;2023-10-19T06:21:10;5.22;;;1.00;;
72060;SDS011;59925;52.136;5.420;2023-10-19T06:23:38;8.32;;;1.08;;
72060;SDS011;59925;52.136;5.420;2023-10-19T06:26:08;2.90;;;0.73;;
72060;SDS011;59925;52.136;5.420;2023-10-19T06:28:38;3.17;;;0.98;;
72060;SDS011;59925;52.136;5.420;2023-10-19T06:31:07;7.40;;;1.40;;
72060;SDS011;59925;52.136;5.420;2023-10-19T06:33:35;3.55;;;1.13;;
72060;SDS011;59925;52.136;5.420;2023-10-19T06:36:08;2.35;;;0.82;;
72060;SDS011;59925;52.136;5.420;2023-10-19T06:38:35;4.07;;;1.10;;
72060;SDS011;59925;52.136;5.420;2023-10-19T06:41:09;4.07;;;1.70;;
72060;SDS011;59925;52.136;5.420;2023-10-19T06:43:40;3.88;;;1.25;;
72060;SDS011;59925;52.136;5.420;2023-10-19T06:46:07;5.00;;;1.52;;
72060;SDS011;59925;52.136;5.420;2023-10-19T06:48:38;6.93;;;1.63;;
72060;SDS011;59925;52.136;5.420;2023-10-19T06:51:06;2.83;;;1.20;;
72060;SDS011;59925;52.136;5.420;2023-10-19T06:53:32;5.93;;;1.30;;
72060;SDS011;59925;52.136;5.420;2023-10-19T06:55:59;8.75;;;1.63;;
72060;SDS011;59925;52.136;5.420;2023-10-19T06:58:27;8.88;;;1.50;;
72060;SDS011;59925;52.136;5.420;2023-10-19T07:00:54;6.93;;;1.50;;
72060;SDS011;59925;52.136;5.420;2023-10-19T07:03:25;5.47;;;1.37;;
72060;SDS011;59925;52.136;5.420;2023-10-19T07:05:54;3.55;;;1.23;;
72060;SDS011;59925;52.136;5.420;2023-10-19T07:08:21;4.20;;;1.60;;
72060;SDS011;59925;52.136;5.420;2023-10-19T07:10:48;3.72;;;1.50;;
72060;SDS011;59925;52.136;5.420;2023-10-19T07:13:17;5.22;;;1.80;;
72060;SDS011;59925;52.136;5.420;2023-10-19T07:15:44;5.77;;;1.43;;
72060;SDS011;59925;52.136;5.420;2023-10-19T07:18:12;6.47;;;1.40;;
72060;SDS011;59925;52.136;5.420;2023-10-19T07:20:40;6.60;;;1.70;;
72060;SDS011;59925;52.136;5.420;2023-10-19T07:23:08;5.47;;;1.75;;
72060;SDS011;59925;52.136;5.420;2023-10-19T07:25:45;6.47;;;1.60;;
72060;SDS011;59925;52.136;5.420;2023-10-19T07:28:15;7.33;;;1.77;;
72060;SDS011;59925;52.136;5.420;2023-10-19T07:30:42;7.15;;;1.83;;
72060;SDS011;59925;52.136;5.420;2023-10-19T07:33:09;5.70;;;1.75;;
72060;SDS011;59925;52.136;5.420;2023-10-19T07:35:37;6.63;;;1.65;;
72060;SDS011;59925;52.136;5.420;2023-10-19T07:38:05;8.38;;;1.70;;
72060;SDS011;59925;52.136;5.420;2023-10-19T07:40:34;8.07;;;1.67;;
72060;SDS011;59925;52.136;5.420;2023-10-19T07:43:01;6.25;;;1.35;;
72060;SDS011;59925;52.136;5.420;2023-10-19T07:45:30;5.22;;;1.73;;
72060;SDS011;59925;52.136;5.420;2023-10-19T07:47:58;4.25;;;1.73;;
72060;SDS011;59925;52.136;5.420;2023-10-19T07:50:33;6.20;;;1.73;;
72060;SDS011;59925;52.136;5.420;2023-10-19T07:53:00;9.27;;;1.60;;
72060;SDS011;59925;52.136;5.420;2023-10-19T07:55:28;4.00;;;1.55;;
72060;SDS011;59925;52.136;5.420;2023-10-19T07:57:55;4.72;;;1.55;;
72060;SDS011;59925;52.136;5.420;2023-10-19T08:00:23;6.35;;;1.80;;
72060;SDS011;59925;52.136;5.420;2023-10-19T08:02:49;6.18;;;1.80;;
72060;SDS011;59925;52.136;5.420;2023-10-19T08:05:17;3.67;;;1.23;;
72060;SDS011;59925;52.136;5.420;2023-10-19T08:07:45;6.72;;;1.50;;
72060;SDS011;59925;52.136;5.420;2023-10-19T08:10:16;5.93;;;1.77;;
72060;SDS011;59925;52.136;5.420;2023-10-19T08:12:44;6.13;;;1.42;;
72060;SDS011;59925;52.136;5.420;2023-10-19T08:15:14;7.00;;;1.52;;
72060;SDS011;59925;52.136;5.420;2023-10-19T08:17:43;3.60;;;1.40;;
72060;SDS011;59925;52.136;5.420;2023-10-19T08:20:13;4.93;;;1.30;;
72060;SDS011;59925;52.136;5.420;2023-10-19T08:22:53;5.38;;;1.48;;
72060;SDS011;59925;52.136;5.420;2023-10-19T08:25:24;3.70;;;1.15;;
72060;SDS011;59925;52.136;5.420;2023-10-19T08:28:02;7.72;;;1.60;;
72060;SDS011;59925;52.136;5.420;2023-10-19T08:30:28;6.93;;;1.53;;
72060;SDS011;59925;52.136;5.420;2023-10-19T08:32:55;5.55;;;1.58;;
72060;SDS011;59925;52.136;5.420;2023-10-19T08:35:24;7.95;;;1.70;;
72060;SDS011;59925;52.136;5.420;2023-10-19T08:37:52;7.05;;;1.80;;
72060;SDS011;59925;52.136;5.420;2023-10-19T08:40:19;6.32;;;1.95;;
72060;SDS011;59925;52.136;5.420;2023-10-19T08:42:47;5.23;;;1.40;;
72060;SDS011;59925;52.136;5.420;2023-10-19T08:45:14;6.13;;;1.55;;
72060;SDS011;59925;52.136;5.420;2023-10-19T08:47:43;5.65;;;1.52;;
72060;SDS011;59925;52.136;5.420;2023-10-19T08:50:19;5.20;;;1.95;;
72060;SDS011;59925;52.136;5.420;2023-10-19T08:52:53;11.30;;;1.73;;
72060;SDS011;59925;52.136;5.420;2023-10-19T08:55:21;3.27;;;1.40;;
72060;SDS011;59925;52.136;5.420;2023-10-19T08:58:06;7.78;;;1.58;;
72060;SDS011;59925;52.136;5.420;2023-10-19T09:00:46;6.65;;;1.63;;
72060;SDS011;59925;52.136;5.420;2023-10-19T09:03:15;8.05;;;2.08;;
72060;SDS011;59925;52.136;5.420;2023-10-19T09:05:44;5.50;;;1.67;;
72060;SDS011;59925;52.136;5.420;2023-10-19T09:08:16;7.43;;;2.10;;
72060;SDS011;59925;52.136;5.420;2023-10-19T09:10:46;7.28;;;1.63;;
72060;SDS011;59925;52.136;5.420;2023-10-19T09:13:15;12.02;;;2.28;;
72060;SDS011;59925;52.136;5.420;2023-10-19T09:15:46;8.32;;;2.00;;
72060;SDS011;59925;52.136;5.420;2023-10-19T09:18:19;5.90;;;1.77;;
72060;SDS011;59925;52.136;5.420;2023-10-19T09:20:51;7.10;;;1.87;;
72060;SDS011;59925;52.136;5.420;2023-10-19T09:23:23;5.63;;;1.83;;
72060;SDS011;59925;52.136;5.420;2023-10-19T09:25:52;4.07;;;1.60;;
72060;SDS011;59925;52.136;5.420;2023-10-19T09:28:20;8.98;;;2.00;;
72060;SDS011;59925;52.136;5.420;2023-10-19T09:30:48;11.93;;;1.75;;
72060;SDS011;59925;52.136;5.420;2023-10-19T09:33:15;8.47;;;1.80;;
72060;SDS011;59925;52.136;5.420;2023-10-19T09:35:45;5.82;;;1.70;;
72060;SDS011;59925;52.136;5.420;2023-10-19T09:38:15;5.22;;;1.70;;
72060;SDS011;59925;52.136;5.420;2023-10-19T09:40:42;6.28;;;2.17;;
72060;SDS011;59925;52.136;5.420;2023-10-19T09:43:12;3.92;;;1.63;;
72060;SDS011;59925;52.136;5.420;2023-10-19T09:45:42;5.73;;;1.80;;
72060;SDS011;59925;52.136;5.420;2023-10-19T09:48:17;7.47;;;1.77;;
72060;SDS011;59925;52.136;5.420;2023-10-19T09:50:47;7.82;;;1.70;;
72060;SDS011;59925;52.136;5.420;2023-10-19T09:53:26;4.97;;;1.40;;
72060;SDS011;59925;52.136;5.420;2023-10-19T09:55:56;8.20;;;1.60;;
72060;SDS011;59925;52.136;5.420;2023-10-19T09:58:25;6.40;;;1.63;;
72060;SDS011;59925;52.136;5.420;2023-10-19T10:00:55;4.00;;;1.60;;
72060;SDS011;59925;52.136;5.420;2023-10-19T10:06:10;8.63;;;2.20;;
72060;SDS011;59925;52.136;5.420;2023-10-19T10:08:44;7.03;;;1.92;;
72060;SDS011;59925;52.136;5.420;2023-10-19T10:11:16;6.77;;;2.00;;
72060;SDS011;59925;52.136;5.420;2023-10-19T10:13:44;5.70;;;1.90;;
72060;SDS011;59925;52.136;5.420;2023-10-19T10:16:13;6.68;;;1.83;;
72060;SDS011;59925;52.136;5.420;2023-10-19T10:18:41;6.72;;;1.80;;
72060;SDS011;59925;52.136;5.420;2023-10-19T10:21:11;6.05;;;1.92;;
72060;SDS011;59925;52.136;5.420;2023-10-19T10:26:14;7.45;;;3.05;;
72060;SDS011;59925;52.136;5.420;2023-10-19T10:28:41;8.05;;;1.80;;
72060;SDS011;59925;52.136;5.420;2023-10-19T10:31:19;4.80;;;1.80;;
72060;SDS011;59925;52.136;5.420;2023-10-19T10:33:50;5.03;;;1.98;;
72060;SDS011;59925;52.136;5.420;2023-10-19T10:36:20;6.10;;;2.07;;
72060;SDS011;59925;52.136;5.420;2023-10-19T10:38:50;7.95;;;2.05;;
72060;SDS011;59925;52.136;5.420;2023-10-19T10:41:21;11.93;;;2.30;;
72060;SDS011;59925;52.136;5.420;2023-10-19T10:43:49;9.93;;;2.15;;
72060;SDS011;59925;52.136;5.420;2023-10-19T10:46:20;7.22;;;2.13;;
72060;SDS011;59925;52.136;5.420;2023-10-19T10:48:48;8.07;;;1.90;;
72060;SDS011;59925;52.136;5.420;2023-10-19T10:51:15;7.82;;;1.90;;
72060;SDS011;59925;52.136;5.420;2023-10-19T10:53:49;6.88;;;1.60;;
72060;SDS011;59925;52.136;5.420;2023-10-19T10:56:18;6.82;;;2.30;;
72060;SDS011;59925;52.136;5.420;2023-10-19T10:58:45;6.00;;;2.20;;
72060;SDS011;59925;52.136;5.420;2023-10-19T11:01:12;7.90;;;2.30;;
72060;SDS011;59925;52.136;5.420;2023-10-19T11:03:42;8.15;;;1.73;;
72060;SDS011;59925;52.136;5.420;2023-10-19T11:06:09;6.22;;;1.60;;
72060;SDS011;59925;52.136;5.420;2023-10-19T11:08:37;8.95;;;1.70;;
72060;SDS011;59925;52.136;5.420;2023-10-19T11:11:06;5.97;;;1.80;;
72060;SDS011;59925;52.136;5.420;2023-10-19T11:13:37;7.00;;;1.77;;
72060;SDS011;59925;52.136;5.420;2023-10-19T11:16:05;8.10;;;1.73;;
72060;SDS011;59925;52.136;5.420;2023-10-19T11:18:36;8.90;;;2.10;;
72060;SDS011;59925;52.136;5.420;2023-10-19T11:21:07;7.40;;;2.17;;
72060;SDS011;59925;52.136;5.420;2023-10-19T11:23:39;6.72;;;1.42;;
72060;SDS011;59925;52.136;5.420;2023-10-19T11:26:09;4.00;;;1.60;;
72060;SDS011;59925;52.136;5.420;2023-10-19T11:28:37;7.22;;;2.22;;
72060;SDS011;59925;52.136;5.420;2023-10-19T11:33:46;5.72;;;1.95;;
72060;SDS011;59925;52.136;5.420;2023-10-19T11:36:15;4.70;;;1.40;;
72060;SDS011;59925;52.136;5.420;2023-10-19T11:38:43;9.33;;;1.77;;
72060;SDS011;59925;52.136;5.420;2023-10-19T11:41:14;10.45;;;1.70;;
72060;SDS011;59925;52.136;5.420;2023-10-19T11:43:44;6.93;;;1.40;;
72060;SDS011;59925;52.136;5.420;2023-10-19T11:46:11;8.15;;;1.67;;
72060;SDS011;59925;52.136;5.420;2023-10-19T11:48:40;6.70;;;2.10;;
72060;SDS011;59925;52.136;5.420;2023-10-19T11:51:09;4.67;;;1.30;;
72060;SDS011;59925;52.136;5.420;2023-10-19T11:53:37;6.68;;;1.17;;
72060;SDS011;59925;52.136;5.420;2023-10-19T11:56:07;5.88;;;1.23;;
72060;SDS011;59925;52.136;5.420;2023-10-19T11:58:35;7.95;;;1.58;;
72060;SDS011;59925;52.136;5.420;2023-10-19T12:01:13;4.40;;;1.27;;
72060;SDS011;59925;52.136;5.420;2023-10-19T12:03:43;7.23;;;1.70;;
72060;SDS011;59925;52.136;5.420;2023-10-19T12:06:12;6.90;;;1.40;;
72060;SDS011;59925;52.136;5.420;2023-10-19T12:08:45;8.02;;;1.50;;
72060;SDS011;59925;52.136;5.420;2023-10-19T12:11:13;6.00;;;0.98;;
72060;SDS011;59925;52.136;5.420;2023-10-19T12:13:43;6.10;;;1.70;;
72060;SDS011;59925;52.136;5.420;2023-10-19T12:16:10;6.37;;;1.47;;
72060;SDS011;59925;52.136;5.420;2023-10-19T12:18:44;6.18;;;1.00;;
72060;SDS011;59925;52.136;5.420;2023-10-19T12:21:12;9.13;;;1.27;;
72060;SDS011;59925;52.136;5.420;2023-10-19T12:23:39;5.18;;;1.15;;
72060;SDS011;59925;52.136;5.420;2023-10-19T12:26:07;7.43;;;1.10;;
72060;SDS011;59925;52.136;5.420;2023-10-19T12:28:40;7.17;;;1.40;;
72060;SDS011;59925;52.136;5.420;2023-10-19T12:31:07;9.35;;;1.35;;
72060;SDS011;59925;52.136;5.420;2023-10-19T12:33:35;7.57;;;1.40;;
72060;SDS011;59925;52.136;5.420;2023-10-19T12:36:02;12.32;;;1.42;;
72060;SDS011;59925;52.136;5.420;2023-10-19T12:38:48;6.15;;;1.20;;
72060;SDS011;59925;52.136;5.420;2023-10-19T12:41:19;8.00;;;1.40;;
72060;SDS011;59925;52.136;5.420;2023-10-19T12:43:46;8.10;;;1.48;;
72060;SDS011;59925;52.136;5.420;2023-10-19T12:46:13;4.18;;;1.27;;
72060;SDS011;59925;52.136;5.420;2023-10-19T12:48:42;8.13;;;1.40;;
72060;SDS011;59925;52.136;5.420;2023-10-19T12:51:14;4.55;;;1.23;;
72060;SDS011;59925;52.136;5.420;2023-10-19T12:53:41;10.20;;;1.40;;
72060;SDS011;59925;52.136;5.420;2023-10-19T12:56:08;5.32;;;1.40;;
72060;SDS011;59925;52.136;5.420;2023-10-19T12:58:37;10.82;;;1.90;;
72060;SDS011;59925;52.136;5.420;2023-10-19T13:01:04;7.20;;;1.20;;
72060;SDS011;59925;52.136;5.420;2023-10-19T13:03:31;8.48;;;1.98;;
72060;SDS011;59925;52.136;5.420;2023-10-19T13:05:59;6.30;;;1.70;;
72060;SDS011;59925;52.136;5.420;2023-10-19T13:08:30;9.52;;;1.45;;
72060;SDS011;59925;52.136;5.420;2023-10-19T13:10:56;8.40;;;1.58;;
72060;SDS011;59925;52.136;5.420;2023-10-19T13:13:33;5.18;;;1.63;;
72060;SDS011;59925;52.136;5.420;2023-10-19T13:16:02;6.00;;;1.30;;
72060;SDS011;59925;52.136;5.420;2023-10-19T13:18:38;4.27;;;1.00;;
72060;SDS011;59925;52.136;5.420;2023-10-19T13:21:06;5.60;;;1.30;;
72060;SDS011;59925;52.136;5.420;2023-10-19T13:23:35;9.25;;;1.77;;
72060;SDS011;59925;52.136;5.420;2023-10-19T13:26:02;13.85;;;2.33;;
72060;SDS011;59925;52.136;5.420;2023-10-19T13:28:41;6.88;;;1.90;;
72060;SDS011;59925;52.136;5.420;2023-10-19T13:31:08;9.00;;;1.80;;
72060;SDS011;59925;52.136;5.420;2023-10-19T13:33:40;9.43;;;2.20;;
72060;SDS011;59925;52.136;5.420;2023-10-19T13:36:10;8.43;;;2.28;;
72060;SDS011;59925;52.136;5.420;2023-10-19T13:38:37;10.07;;;2.35;;
72060;SDS011;59925;52.136;5.420;2023-10-19T13:41:04;6.90;;;2.30;;
72060;SDS011;59925;52.136;5.420;2023-10-19T13:43:35;10.07;;;2.00;;
72060;SDS011;59925;52.136;5.420;2023-10-19T13:46:04;8.68;;;1.95;;
72060;SDS011;59925;52.136;5.420;2023-10-19T13:48:31;10.05;;;2.40;;
72060;SDS011;59925;52.136;5.420;2023-10-19T13:50:58;8.43;;;2.92;;
72060;SDS011;59925;52.136;5.420;2023-10-19T13:53:39;7.32;;;1.88;;
72060;SDS011;59925;52.136;5.420;2023-10-19T13:56:09;15.30;;;2.60;;
72060;SDS011;59925;52.136;5.420;2023-10-19T13:58:37;8.40;;;2.28;;
72060;SDS011;59925;52.136;5.420;2023-10-19T14:01:08;5.10;;;2.03;;
72060;SDS011;59925;52.136;5.420;2023-10-19T14:03:36;13.82;;;2.42;;
72060;SDS011;59925;52.136;5.420;2023-10-19T14:06:11;8.50;;;2.05;;
72060;SDS011;59925;52.136;5.420;2023-10-19T14:08:39;9.10;;;2.00;;
72060;SDS011;59925;52.136;5.420;2023-10-19T14:11:06;9.98;;;2.10;;
72060;SDS011;59925;52.136;5.420;2023-10-19T14:13:33;6.35;;;2.20;;
72060;SDS011;59925;52.136;5.420;2023-10-19T14:16:05;8.77;;;1.63;;
72060;SDS011;59925;52.136;5.420;2023-10-19T14:18:34;6.88;;;1.52;;
72060;SDS011;59925;52.136;5.420;2023-10-19T14:21:09;6.13;;;1.60;;
72060;SDS011;59925;52.136;5.420;2023-10-19T14:23:38;7.50;;;1.80;;
72060;SDS011;59925;52.136;5.420;2023-10-19T14:26:06;9.32;;;2.13;;
72060;SDS011;59925;52.136;5.420;2023-10-19T14:28:33;5.88;;;1.90;;
72060;SDS011;59925;52.136;5.420;2023-10-19T14:31:02;6.05;;;1.73;;
72060;SDS011;59925;52.136;5.420;2023-10-19T14:33:30;6.70;;;1.63;;
72060;SDS011;59925;52.136;5.420;2023-10-19T14:35:57;6.35;;;1.75;;
72060;SDS011;59925;52.136;5.420;2023-10-19T14:38:24;9.40;;;1.70;;
72060;SDS011;59925;52.136;5.420;2023-10-19T14:40:53;10.13;;;2.17;;
72060;SDS011;59925;52.136;5.420;2023-10-19T14:43:20;8.77;;;2.00;;
72060;SDS011;59925;52.136;5.420;2023-10-19T14:45:47;8.17;;;1.77;;
72060;SDS011;59925;52.136;5.420;2023-10-19T14:48:13;11.75;;;2.13;;
72060;SDS011;59925;52.136;5.420;2023-10-19T14:50:41;6.85;;;2.22;;
72060;SDS011;59925;52.136;5.420;2023-10-19T14:53:09;7.53;;;2.10;;
72060;SDS011;59925;52.136;5.420;2023-10-19T14:55:36;11.07;;;2.15;;
72060;SDS011;59925;52.136;5.420;2023-10-19T14:58:02;10.13;;;2.30;;
72060;SDS011;59925;52.136;5.420;2023-10-19T15:00:29;11.70;;;2.30;;
72060;SDS011;59925;52.136;5.420;2023-10-19T15:03:01;10.75;;;2.33;;
72060;SDS011;59925;52.136;5.420;2023-10-19T15:05:34;7.22;;;1.83;;
72060;SDS011;59925;52.136;5.420;2023-10-19T15:08:05;11.80;;;2.08;;